Time;durP1;ratioP1;P1;durP2;ratioP2;P2;SDS_P1;SDS_P2;PMS_P1;PMS_P2;Temp;Humidity;BMP_temperature;BMP_pressure;BME280_temperature;BME280_humidity;BME280_pressure;Samples;Min_cycle;Max_cycle;Signal;HPM_P1;HPM_P2
2024/01/06 00:01:16;;;;;;;9.57;7.53;;;8.60;99.90;;;5.08;100.00;99265.34;4995053;28;20054;-79
2024/01/06 00:03:44;;;;;;;9.48;7.25;;;8.20;99.90;;;5.22;100.00;99291.13;4959162;28;20043;-80
2024/01/06 00:06:14;;;;;;;10.38;6.00;;;7.80;1.00;;;5.55;100.00;99342.69;4974479;28;20058;-80
2024/01/06 00:08:41;;;;;;;9.30;5.53;;;7.20;1.00;;;5.14;100.00;99279.13;4954209;28;20080;-79
2024/01/06 00:11:10;;;;;;;10.13;5.82;;;7.70;1.00;;;5.23;100.00;99284.19;4994582;28;20113;-80
2024/01/06 00:13:37;;;;;;;9.02;5.75;;;7.20;1.00;;;4.87;100.00;99224.00;4975211;28;20886;-80
2024/01/06 00:16:04;;;;;;;9.57;5.55;;;7.20;1.00;;;5.18;100.00;99275.56;4965821;28;20056;-80
2024/01/06 00:18:31;;;;;;;9.38;5.60;;;7.20;1.00;;;5.35;100.00;99304.78;5010698;28;20058;-80
2024/01/06 00:20:59;;;;;;;7.25;5.75;;;7.20;1.00;;;5.21;100.00;99278.09;4980898;28;20058;-80
2024/01/06 00:23:29;;;;;;;9.45;6.25;;;7.30;1.00;;;5.64;100.00;99357.28;4976902;28;20054;-80
2024/01/06 00:25:56;;;;;;;9.85;5.05;;;7.20;1.00;;;5.21;100.00;99275.50;4987978;28;20055;-80
2024/01/06 00:28:24;;;;;;;6.43;4.70;;;7.20;1.00;;;5.53;100.00;99355.75;4987388;28;20047;-80
2024/01/06 00:30:51;;;;;;;5.75;4.57;;;7.20;1.00;;;5.36;100.00;99323.91;4984245;28;20085;-81
2024/01/06 00:33:18;;;;;;;9.93;4.97;;;7.90;1.00;;;5.64;100.00;99365.97;4982414;28;20046;-80
2024/01/06 00:35:45;;;;;;;10.30;5.45;;;8.40;1.00;;;4.97;100.00;99265.50;4962796;28;20042;-80
2024/01/06 00:38:12;;;;;;;9.40;5.18;;;7.10;1.00;;;5.18;100.00;99284.25;4978065;28;20057;-79
2024/01/06 00:40:39;;;;;;;8.25;5.50;;;7.60;1.00;;;5.30;100.00;99313.56;4978455;28;20038;-80
2024/01/06 00:43:07;;;;;;;7.80;5.22;;;7.20;1.00;;;5.29;100.00;99322.28;4978366;28;20073;-80
2024/01/06 00:45:34;;;;;;;10.23;6.05;;;8.00;1.00;;;5.10;100.00;99297.44;4975575;28;20051;-79
2024/01/06 00:48:01;;;;;;;7.90;5.20;;;7.10;1.00;;;5.13;100.00;99295.66;4990103;28;20048;-79
2024/01/06 00:50:28;;;;;;;11.10;5.13;;;8.20;1.00;;;5.76;100.00;99384.91;4986892;28;20483;-80
2024/01/06 00:52:56;;;;;;;7.47;5.18;;;7.10;1.00;;;5.16;100.00;99299.09;4962976;28;20058;-80
2024/01/06 00:55:24;;;;;;;9.45;4.93;;;7.70;1.00;;;5.46;100.00;99371.56;4975242;28;20043;-79
2024/01/06 00:57:51;;;;;;;11.10;5.15;;;7.60;1.00;;;5.45;100.00;99368.06;4973687;28;20420;-80
2024/01/06 01:00:18;;;;;;;7.57;5.43;;;7.80;1.00;;;4.71;100.00;99258.16;4965688;28;20141;-80
2024/01/06 01:02:45;;;;;;;8.82;4.68;;;7.00;1.00;;;5.10;100.00;99330.47;4998069;28;20046;-79
2024/01/06 01:05:12;;;;;;;6.80;4.47;;;7.70;1.00;;;4.91;100.00;99301.25;4982773;28;20112;-80
2024/01/06 01:07:40;;;;;;;8.73;4.65;;;7.30;1.00;;;4.93;100.00;99307.31;4973987;28;20046;-80
2024/01/06 01:10:08;;;;;;;10.27;5.13;;;8.00;1.00;;;4.99;100.00;99312.41;4958180;28;20101;-80
2024/01/06 01:12:36;;;;;;;7.40;4.80;;;6.90;1.00;;;4.99;100.00;99324.56;5011299;28;20038;-80
2024/01/06 01:15:03;;;;;;;7.18;5.05;;;7.70;1.00;;;4.88;100.00;99296.09;4977714;28;20050;-80
2024/01/06 01:17:30;;;;;;;10.20;4.80;;;6.90;1.00;;;4.95;100.00;99342.03;4990308;28;20043;-80
2024/01/06 01:19:57;;;;;;;8.30;4.72;;;7.60;1.00;;;4.86;100.00;99332.63;4992920;28;20078;-80
2024/01/06 01:22:25;;;;;;;9.15;4.90;;;7.90;1.00;;;5.09;100.00;99362.66;4995767;28;20249;-80
2024/01/06 01:24:52;;;;;;;8.02;4.10;;;7.90;1.00;;;4.71;100.00;99281.63;4977518;28;20049;-79
2024/01/06 01:27:19;;;;;;;6.10;4.13;;;7.10;1.00;;;4.85;100.00;99302.25;4995555;28;20081;-79
2024/01/06 01:29:48;;;;;;;8.38;4.53;;;7.60;1.00;;;5.04;100.00;99349.69;4954304;28;20070;-79
2024/01/06 01:32:15;;;;;;;6.28;4.20;;;7.80;1.00;;;5.06;100.00;99340.09;4977008;28;20054;-80
2024/01/06 01:34:42;;;;;;;10.50;4.80;;;7.80;1.00;;;5.37;100.00;99406.50;4968514;28;20054;-79
2024/01/06 01:37:09;;;;;;;9.70;5.03;;;6.90;1.00;;;5.41;100.00;99449.91;4976629;28;20054;-79
2024/01/06 01:39:36;;;;;;;9.77;4.82;;;6.80;1.00;;;4.80;100.00;99331.00;4962017;28;20047;-79
2024/01/06 01:42:05;;;;;;;11.00;4.90;;;7.70;1.00;;;4.94;100.00;99350.75;4973708;28;20091;-79
2024/01/06 01:44:32;;;;;;;6.57;3.97;;;6.00;1.00;;;5.14;100.00;99396.47;4962681;28;20054;-79
2024/01/06 01:46:59;;;;;;;5.88;3.78;;;7.60;1.00;;;5.03;100.00;99357.56;4982516;28;20764;-79
2024/01/06 01:49:26;;;;;;;6.13;3.88;;;7.70;1.00;;;5.28;100.00;99397.09;4974429;28;20045;-80
2024/01/06 01:51:54;;;;;;;8.82;4.72;;;7.70;1.00;;;4.93;100.00;99364.69;4977796;28;20054;-80
2024/01/06 01:54:21;;;;;;;8.13;4.05;;;7.20;1.00;;;4.94;100.00;99376.81;4968036;28;20100;-80
2024/01/06 01:56:49;;;;;;;6.43;4.60;;;7.60;1.00;;;5.11;100.00;99395.66;4986081;28;20093;-80
2024/01/06 01:59:19;;;;;;;15.43;7.22;;;6.90;1.00;;;5.32;100.00;99424.00;4977868;28;20069;-80
2024/01/06 02:01:47;;;;;;;12.25;6.72;;;8.40;1.00;;;5.04;100.00;99395.78;4978506;28;20069;-80
2024/01/06 02:04:14;;;;;;;10.43;5.25;;;8.30;1.00;;;5.04;100.00;99382.75;4987857;28;20073;-80
2024/01/06 02:06:41;;;;;;;11.57;7.10;;;6.90;1.00;;;4.70;100.00;99352.03;4953453;28;20050;-79
2024/01/06 02:09:08;;;;;;;14.85;6.85;;;8.10;1.00;;;4.69;100.00;99340.72;4988722;28;20042;-79
2024/01/06 02:11:35;;;;;;;10.98;5.55;;;8.10;1.00;;;5.00;100.00;99381.91;4993076;28;20137;-79
2024/01/06 02:14:02;;;;;;;8.30;4.82;;;8.00;1.00;;;4.93;100.00;99375.94;4992990;28;20042;-79
2024/01/06 02:16:29;;;;;;;8.23;5.88;;;6.80;1.00;;;5.26;100.00;99443.22;4982864;28;20046;-79
2024/01/06 02:18:58;;;;;;;9.05;5.72;;;7.80;1.00;;;4.74;100.00;99367.56;4979694;28;20122;-79
2024/01/06 02:21:28;;;;;;;14.70;4.93;;;6.80;1.00;;;4.57;100.00;99343.53;5005456;28;20043;-79
2024/01/06 02:23:56;;;;;;;6.78;4.55;;;6.80;1.00;;;4.68;100.00;99376.38;4976579;28;20046;-79
2024/01/06 02:26:23;;;;;;;7.25;4.40;;;6.30;1.00;;;5.03;100.00;99428.78;4984504;28;20043;-80
2024/01/06 02:28:50;;;;;;;7.50;4.10;;;7.00;1.00;;;5.46;100.00;99497.63;4984682;28;20046;-79
2024/01/06 02:31:20;;;;;;;8.60;4.55;;;6.80;1.00;;;5.27;100.00;99459.72;4977943;28;20046;-80
2024/01/06 02:33:47;;;;;;;7.90;3.75;;;7.00;1.00;;;4.92;100.00;99428.13;4985597;28;20047;-79
2024/01/06 02:36:14;;;;;;;10.15;4.13;;;8.00;1.00;;;4.79;100.00;99423.09;4977052;28;20409;-80
2024/01/06 02:38:41;;;;;;;5.55;3.35;;;6.70;1.00;;;4.49;100.00;99381.00;4985277;28;20046;-79
2024/01/06 02:41:08;;;;;;;4.82;3.10;;;7.60;1.00;;;4.74;100.00;99422.28;4970439;28;20059;-79
2024/01/06 02:43:35;;;;;;;8.43;3.42;;;6.70;1.00;;;5.29;100.00;99508.38;4976736;28;20064;-79
2024/01/06 02:46:03;;;;;;;8.00;3.58;;;6.70;1.00;;;4.62;100.00;99393.84;4987031;28;20043;-79
2024/01/06 02:48:30;;;;;;;6.82;3.38;;;6.70;1.00;;;4.79;100.00;99417.88;4982865;28;20050;-79
2024/01/06 02:50:57;;;;;;;11.00;4.28;;;7.20;1.00;;;4.79;100.00;99417.88;4956549;28;20497;-79
2024/01/06 02:53:25;;;;;;;5.70;3.22;;;7.10;1.00;;;5.00;100.00;99441.03;4976923;28;20076;-79
2024/01/06 02:55:52;;;;;;;7.68;3.70;;;6.90;1.00;;;4.81;100.00;99426.53;4988416;28;20099;-80
2024/01/06 02:58:19;;;;;;;4.75;3.35;;;7.50;1.00;;;4.60;100.00;99393.84;4992370;28;20050;-80
2024/01/06 03:00:46;;;;;;;6.88;3.67;;;7.20;1.00;;;5.39;100.00;99550.81;4996500;28;20126;-81
2024/01/06 03:03:13;;;;;;;6.63;3.70;;;6.90;1.00;;;5.08;100.00;99505.22;4991959;28;20053;-80
2024/01/06 03:05:40;;;;;;;7.32;4.38;;;6.80;1.00;;;4.56;100.00;99418.25;4990853;28;20104;-80
2024/01/06 03:08:08;;;;;;;8.60;4.60;;;7.30;1.00;;;4.31;100.00;99405.53;4967030;28;20054;-80
2024/01/06 03:10:36;;;;;;;5.13;3.83;;;7.00;1.00;;;5.04;100.00;99493.09;4983326;28;20039;-79
2024/01/06 03:13:03;;;;;;;7.47;4.35;;;6.50;1.00;;;4.72;100.00;99442.31;4991638;28;20124;-80
2024/01/06 03:15:30;;;;;;;6.40;4.40;;;6.60;1.00;;;5.22;100.00;99535.41;4972442;28;20095;-81
2024/01/06 03:17:58;;;;;;;9.98;4.20;;;7.50;1.00;;;5.13;100.00;99502.50;4985257;28;20080;-80
2024/01/06 03:20:25;;;;;;;6.03;3.45;;;8.00;1.00;;;4.59;100.00;99414.69;4976094;28;20515;-79
2024/01/06 03:22:52;;;;;;;4.85;3.28;;;7.60;1.00;;;4.97;100.00;99466.25;4990457;28;20074;-81
2024/01/06 03:25:19;;;;;;;6.97;3.53;;;7.00;1.00;;;4.62;100.00;99436.38;4973444;28;20074;-81
2024/01/06 03:27:46;;;;;;;5.75;3.42;;;6.80;1.00;;;4.97;100.00;99489.72;4991148;28;20074;-80
2024/01/06 03:30:13;;;;;;;5.22;3.78;;;7.40;1.00;;;4.78;100.00;99459.59;4983496;28;20453;-81
2024/01/06 03:32:40;;;;;;;8.02;4.03;;;6.60;1.00;;;5.29;100.00;99554.44;4986609;28;20049;-81
2024/01/06 03:35:08;;;;;;;6.15;3.38;;;6.90;1.00;;;4.90;100.00;99476.78;4952264;28;20053;-81
2024/01/06 03:37:35;;;;;;;7.72;3.75;;;7.30;1.00;;;5.28;100.00;99552.72;4978065;28;20054;-83
2024/01/06 03:40:03;;;;;;;7.30;3.92;;;7.00;1.00;;;4.58;100.00;99445.13;5001699;28;20046;-80
2024/01/06 03:42:30;;;;;;;6.57;3.67;;;6.50;1.00;;;4.96;100.00;99492.38;4996145;28;20054;-80
2024/01/06 03:44:58;;;;;;;7.60;3.63;;;7.10;1.00;;;4.51;100.00;99420.03;4996014;28;20050;-80
2024/01/06 03:47:25;;;;;;;5.72;3.65;;;7.30;1.00;;;4.83;100.00;99476.91;4978426;28;20637;-83
2024/01/06 03:49:52;;;;;;;6.22;4.10;;;7.20;1.00;;;4.29;100.00;99388.22;4978427;28;20053;-81
2024/01/06 03:52:19;;;;;;;6.47;3.78;;;6.50;1.00;;;4.95;100.00;99470.63;4992753;28;20046;-82
2024/01/06 03:54:46;;;;;;;6.75;3.65;;;7.40;1.00;;;4.50;100.00;99400.06;4981610;28;20577;-82
2024/01/06 03:57:14;;;;;;;6.93;3.63;;;7.00;1.00;;;4.72;100.00;99460.53;4988652;28;20039;-82
2024/01/06 03:59:42;;;;;;;9.15;3.70;;;6.90;1.00;;;4.71;100.00;99474.47;4972149;28;20046;-83
2024/01/06 04:02:09;;;;;;;6.28;3.47;;;7.40;1.00;;;4.57;100.00;99451.22;4949936;28;20061;-81
2024/01/06 04:04:36;;;;;;;8.18;3.72;;;7.60;1.00;;;4.51;100.00;99428.72;4983373;28;20051;-82
2024/01/06 04:07:03;;;;;;;5.97;3.83;;;6.90;1.00;;;4.45;100.00;99422.72;4978112;28;20062;-83
2024/01/06 04:09:30;;;;;;;7.05;3.72;;;6.50;1.00;;;4.36;100.00;99395.06;4978635;28;20672;-82
2024/01/06 04:11:58;;;;;;;9.38;3.90;;;6.80;1.00;;;4.71;100.00;99471.84;4978557;28;20134;-83
2024/01/06 04:14:25;;;;;;;8.05;4.68;;;7.20;1.00;;;4.49;100.00;99408.78;4974551;28;20047;-82
2024/01/06 04:16:52;;;;;;;7.78;3.92;;;6.60;1.00;;;4.63;100.00;99452.88;4990745;28;20112;-82
2024/01/06 04:19:20;;;;;;;12.52;4.22;;;6.90;1.00;;;4.49;100.00;99420.06;4971905;28;20485;-82
2024/01/06 04:21:48;;;;;;;7.20;3.78;;;6.40;1.00;;;4.72;100.00;99444.91;4967915;28;20056;-82
2024/01/06 04:24:15;;;;;;;7.47;4.18;;;6.80;1.00;;;5.00;100.00;99475.78;4990420;28;20046;-82
2024/01/06 04:26:44;;;;;;;4.22;3.15;;;7.30;1.00;;;5.05;100.00;99492.19;4978787;28;20045;-81
2024/01/06 04:29:12;;;;;;;8.45;3.38;;;7.10;1.00;;;4.48;100.00;99394.91;4979937;28;20163;-82
2024/01/06 04:31:41;;;;;;;7.15;3.92;;;7.30;1.00;;;4.20;100.00;99353.63;4982515;28;20042;-82
2024/01/06 04:34:08;;;;;;;9.45;3.92;;;7.40;1.00;;;4.69;100.00;99416.28;4974055;28;20465;-81
2024/01/06 04:36:36;;;;;;;9.95;3.80;;;6.80;1.00;;;4.89;100.00;99460.31;4972870;28;20061;-82
2024/01/06 04:39:03;;;;;;;8.35;4.00;;;7.00;1.00;;;4.94;100.00;99466.31;4975016;28;20077;-82
2024/01/06 04:41:30;;;;;;;10.60;3.53;;;7.30;1.00;;;4.61;100.00;99395.56;4974549;28;20060;-81
2024/01/06 04:43:58;;;;;;;10.10;4.10;;;6.90;1.00;;;4.65;100.00;99406.81;4989298;28;20109;-83
2024/01/06 04:46:25;;;;;;;6.07;4.10;;;7.50;1.00;;;4.74;100.00;99401.44;4957457;28;20105;-81
2024/01/06 04:48:52;;;;;;;10.75;4.28;;;7.40;1.00;;;4.91;100.00;99439.41;4974760;28;20128;-81
2024/01/06 04:51:19;;;;;;;7.28;3.70;;;7.20;1.00;;;4.40;100.00;99357.66;4990636;28;20051;-81
2024/01/06 04:53:47;;;;;;;8.40;4.13;;;6.60;1.00;;;5.04;100.00;99464.41;4989694;28;20046;-81
2024/01/06 04:56:14;;;;;;;7.80;4.78;;;6.90;1.00;;;4.57;100.00;99403.44;4973843;28;20051;-81
2024/01/06 04:58:41;;;;;;;6.13;4.20;;;7.10;1.00;;;5.00;100.00;99462.75;4990526;28;20126;-81
2024/01/06 05:01:08;;;;;;;6.72;3.63;;;6.60;1.00;;;4.60;100.00;99390.38;4971915;28;20150;-81
2024/01/06 05:03:35;;;;;;;9.48;3.83;;;6.60;1.00;;;4.74;100.00;99430.09;4989435;28;20053;-82
2024/01/06 05:06:03;;;;;;;6.55;3.80;;;7.40;1.00;;;5.18;100.00;99497.22;4962312;28;20562;-82
2024/01/06 05:08:30;;;;;;;11.50;3.38;;;6.50;1.00;;;5.19;100.00;99498.94;4972786;28;20042;-82
2024/01/06 05:10:59;;;;;;;8.70;3.58;;;6.60;1.00;;;4.79;100.00;99449.16;4976468;28;20054;-81
2024/01/06 05:13:26;;;;;;;6.38;4.07;;;7.60;1.00;;;4.93;100.00;99464.56;4972215;28;20137;-81
2024/01/06 05:15:53;;;;;;;6.20;3.17;;;6.60;1.00;;;5.03;100.00;99488.75;4978158;28;20070;-82
2024/01/06 05:18:20;;;;;;;8.70;3.95;;;6.60;1.00;;;4.83;100.00;99448.22;4971333;28;20054;-81
2024/01/06 05:20:48;;;;;;;5.00;3.13;;;6.80;1.00;;;4.65;100.00;99428.50;4970213;28;20042;-81
2024/01/06 05:23:15;;;;;;;6.72;4.13;;;6.70;1.00;;;4.60;100.00;99416.41;4954351;28;20058;-81
2024/01/06 05:25:42;;;;;;;6.82;3.60;;;7.60;1.00;;;4.58;100.00;99442.53;4949519;28;20053;-81
2024/01/06 05:28:09;;;;;;;7.53;3.67;;;6.90;1.00;;;4.28;100.00;99376.06;4974905;28;20058;-83
2024/01/06 05:30:36;;;;;;;7.13;3.60;;;7.50;1.00;;;4.59;100.00;99432.94;4984430;28;20478;-82
2024/01/06 05:33:04;;;;;;;8.63;5.30;;;8.00;1.00;;;4.95;100.00;99496.69;4971633;28;20107;-83
2024/01/06 05:35:31;;;;;;;6.03;3.67;;;6.50;1.00;;;4.59;100.00;99446.84;4961159;28;20501;-81
2024/01/06 05:37:58;;;;;;;6.40;3.65;;;7.60;1.00;;;4.57;100.00;99422.56;4971579;28;20084;-82
2024/01/06 05:40:26;;;;;;;5.32;3.05;;;7.60;1.00;;;4.19;100.00;99383.16;4995310;28;20053;-85
2024/01/06 05:42:55;;;;;;;9.05;3.97;;;7.40;1.00;;;5.22;100.00;99549.31;4988438;28;20061;-81
2024/01/06 05:45:22;;;;;;;10.93;3.28;;;8.10;1.00;;;4.52;100.00;99437.38;4968628;28;20058;-81
2024/01/06 05:47:51;;;;;;;10.65;3.55;;;7.50;1.00;;;4.91;100.00;99502.84;4964943;28;20046;-81
2024/01/06 05:50:18;;;;;;;6.13;3.30;;;8.20;1.00;;;4.48;100.00;99433.97;4971267;28;20054;-81
2024/01/06 05:52:47;;;;;;;12.63;5.28;;;7.00;1.00;;;4.59;100.00;99451.19;4994251;28;20567;-82
2024/01/06 05:55:15;;;;;;;8.50;3.92;;;7.10;1.00;;;4.90;100.00;99502.84;4985954;28;20708;-81
2024/01/06 05:57:42;;;;;;;6.53;3.72;;;6.40;1.00;;;4.56;100.00;99454.72;4970168;28;20057;-81
2024/01/06 06:00:11;;;;;;;9.45;3.42;;;7.20;1.00;;;5.09;100.00;99535.63;4978059;28;20062;-81
2024/01/06 06:02:41;;;;;;;7.50;3.65;;;6.40;1.00;;;4.66;100.00;99478.88;4946761;28;20576;-82
2024/01/06 06:05:08;;;;;;;7.75;3.38;;;6.60;1.00;;;4.60;100.00;99471.13;4963890;28;20058;-81
2024/01/06 06:07:39;;;;;;;8.32;3.60;;;6.90;1.00;;;4.98;100.00;99521.88;4981024;28;20049;-82
2024/01/06 06:10:09;;;;;;;9.88;3.88;;;6.40;1.00;;;4.60;100.00;99459.00;4992788;28;20038;-82
2024/01/06 06:12:38;;;;;;;7.93;3.47;;;6.40;1.00;;;4.53;100.00;99460.81;4966841;28;20083;-82
2024/01/06 06:15:06;;;;;;;6.95;3.42;;;7.60;1.00;;;4.89;100.00;99524.59;4959263;28;20089;-83
2024/01/06 06:17:34;;;;;;;5.03;3.50;;;6.50;1.00;;;4.72;100.00;99514.44;4983218;28;20061;-81
2024/01/06 06:20:01;;;;;;;5.57;3.80;;;7.10;1.00;;;4.54;100.00;99495.56;4961896;28;20045;-83
2024/01/06 06:22:31;;;;;;;8.15;4.10;;;7.00;1.00;;;4.63;100.00;99500.63;4980998;28;20051;-81
2024/01/06 06:24:59;;;;;;;12.68;4.38;;;6.80;1.00;;;4.68;100.00;99527.50;4973537;28;20061;-82
2024/01/06 06:27:27;;;;;;;10.93;4.22;;;6.40;1.00;;;4.47;100.00;99484.34;4988644;28;20042;-81
2024/01/06 06:29:56;;;;;;;8.55;4.60;;;6.70;1.00;;;4.73;100.00;99542.22;4983989;28;20097;-81
2024/01/06 06:32:24;;;;;;;13.68;6.18;;;7.80;1.00;;;4.54;100.00;99539.84;4973114;28;20113;-82
2024/01/06 06:34:51;;;;;;;8.65;3.70;;;7.50;1.00;;;4.51;100.00;99532.91;4958735;28;20486;-82
2024/01/06 06:37:18;;;;;;;10.18;4.20;;;7.00;1.00;;;4.49;100.00;99513.84;4991339;28;20058;-82
2024/01/06 06:39:46;;;;;;;5.05;3.80;;;7.80;1.00;;;4.57;100.00;99536.31;4965170;28;20049;-83
2024/01/06 06:42:13;;;;;;;4.57;3.60;;;6.40;1.00;;;4.44;100.00;99494.78;4994241;28;20056;-84
2024/01/06 06:44:40;;;;;;;10.43;4.13;;;6.40;1.00;;;4.40;100.00;99488.78;4982798;28;20137;-84
2024/01/06 06:47:07;;;;;;;13.88;4.63;;;6.40;1.00;;;4.59;100.00;99537.16;4969249;28;20486;-83
2024/01/06 06:49:35;;;;;;;8.70;4.05;;;7.00;1.00;;;4.63;100.00;99531.91;4988263;28;20043;-82
2024/01/06 06:52:03;;;;;;;5.75;3.72;;;7.00;1.00;;;4.43;100.00;99520.88;4973836;28;20058;-81
2024/01/06 06:54:30;;;;;;;6.28;4.28;;;6.40;1.00;;;4.71;100.00;99565.66;4965831;28;20105;-82
2024/01/06 06:56:58;;;;;;;5.43;3.80;;;7.40;1.00;;;4.66;100.00;99557.06;4989268;28;20073;-83
2024/01/06 06:59:27;;;;;;;9.13;5.47;;;6.50;1.00;;;4.50;100.00;99531.19;4972179;28;20101;-82
2024/01/06 07:01:54;;;;;;;9.05;3.80;;;7.50;1.00;;;4.31;100.00;99509.72;4955979;28;20510;-82
2024/01/06 07:04:23;;;;;;;8.32;4.20;;;6.50;1.00;;;4.23;100.00;99496.78;4978635;28;20061;-82
2024/01/06 07:06:51;;;;;;;6.85;4.32;;;7.20;1.00;;;4.54;100.00;99539.84;4988717;28;20051;-81
2024/01/06 07:09:18;;;;;;;10.30;4.13;;;7.20;1.00;;;4.78;100.00;99590.78;4974166;28;20521;-83
2024/01/06 07:11:50;;;;;;;5.93;3.83;;;7.40;1.00;;;4.86;100.00;99590.69;4994601;28;20113;-82
2024/01/06 07:14:17;;;;;;;6.90;3.92;;;7.30;1.00;;;4.50;100.00;99525.13;4993666;28;20494;-83
2024/01/06 07:16:44;;;;;;;8.82;3.78;;;6.30;1.00;;;4.68;100.00;99555.28;4986163;28;20042;-82
2024/01/06 07:19:11;;;;;;;7.65;4.13;;;7.30;1.00;;;4.51;100.00;99548.56;4994222;28;20505;-82
2024/01/06 07:21:39;;;;;;;7.97;3.58;;;6.50;1.00;;;4.59;100.00;99560.59;4970050;28;20090;-82
2024/01/06 07:24:06;;;;;;;5.75;4.13;;;7.70;1.00;;;4.60;100.00;99565.81;4954567;28;20054;-82
2024/01/06 07:26:36;;;;;;;8.38;4.07;;;6.50;1.00;;;4.27;100.00;99521.06;4962229;28;20065;-82
2024/01/06 07:29:03;;;;;;;9.27;3.80;;;6.50;1.00;;;4.38;100.00;99544.38;4955912;28;20047;-82
2024/01/06 07:31:30;;;;;;;4.72;3.90;;;6.90;1.00;;;4.87;100.00;99618.47;4976380;28;20535;-83
2024/01/06 07:33:58;;;;;;;6.68;3.67;;;6.90;1.00;;;5.21;100.00;99669.31;4954071;28;20057;-82
2024/01/06 07:36:25;;;;;;;6.63;3.88;;;7.50;1.00;;;4.66;100.00;99594.38;4978198;28;20070;-82
2024/01/06 07:38:52;;;;;;;6.55;4.20;;;6.60;1.00;;;4.66;100.00;99594.38;4982171;28;20126;-83
2024/01/06 07:41:25;;;;;;;9.88;4.13;;;7.40;1.00;;;4.39;100.00;99546.97;4990864;28;20112;-82
2024/01/06 07:43:52;;;;;;;6.47;4.03;;;7.50;1.00;;;4.50;100.00;99575.50;4987357;28;20070;-81
2024/01/06 07:46:21;;;;;;;5.35;3.80;;;7.50;1.00;;;4.37;100.00;99540.03;4977474;28;20057;-82
2024/01/06 07:48:49;;;;;;;8.32;4.78;;;7.10;1.00;;;4.82;100.00;99626.34;4970590;28;20050;-83
2024/01/06 07:51:19;;;;;;;7.82;4.35;;;6.40;1.00;;;4.57;100.00;99586.69;4970805;28;20055;-82
2024/01/06 07:53:46;;;;;;;7.35;4.25;;;6.50;1.00;;;4.56;100.00;99566.75;4970543;28;20051;-82
2024/01/06 07:56:13;;;;;;;8.07;4.10;;;8.10;1.00;;;4.56;100.00;99568.47;4977826;28;20058;-82
2024/01/06 07:58:40;;;;;;;8.77;4.63;;;7.70;1.00;;;4.59;100.00;99584.94;4977490;28;20064;-82
2024/01/06 08:01:07;;;;;;;8.55;4.15;;;8.00;1.00;;;4.93;100.00;99633.19;4958544;28;20039;-83
2024/01/06 08:03:34;;;;;;;10.10;5.53;;;6.50;1.00;;;4.70;100.00;99583.94;4983390;28;20126;-81
2024/01/06 08:06:03;;;;;;;8.63;4.45;;;6.80;1.00;;;4.28;100.00;99534.94;4969710;28;20054;-81
2024/01/06 08:08:30;;;;;;;12.52;4.35;;;6.60;1.00;;;4.66;100.00;99593.53;4993596;28;20492;-83
2024/01/06 08:10:57;;;;;;;13.98;6.25;;;7.90;1.00;;;4.51;100.00;99585.03;4970499;28;20050;-83
2024/01/06 08:13:24;;;;;;;7.70;4.07;;;6.60;1.00;;;4.99;100.00;99666.13;4992250;28;20042;-82
2024/01/06 08:15:51;;;;;;;5.32;4.22;;;7.30;1.00;;;4.44;100.00;99559.06;4981436;28;20191;-84
2024/01/06 08:18:20;;;;;;;6.65;4.72;;;7.20;1.00;;;4.47;100.00;99577.25;4988116;28;20054;-81
2024/01/06 08:20:47;;;;;;;8.20;4.50;;;6.60;1.00;;;4.83;100.00;99622.88;4978399;28;20121;-83
2024/01/06 08:23:16;;;;;;;10.55;4.50;;;7.40;1.00;;;4.88;100.00;99635.84;4989319;28;20047;-82
2024/01/06 08:25:43;;;;;;;9.48;4.55;;;6.60;1.00;;;4.77;100.00;99620.34;4977629;28;20039;-82
2024/01/06 08:28:11;;;;;;;8.95;5.80;;;7.30;1.00;;;4.86;100.00;99634.13;4973752;28;20045;-83
2024/01/06 08:30:38;;;;;;;9.15;5.38;;;6.70;1.00;;;5.19;100.00;99681.50;4975548;28;20077;-83
2024/01/06 08:33:05;;;;;;;8.00;6.18;;;7.80;1.00;;;4.86;100.00;99629.78;4977305;28;20480;-83
2024/01/06 08:35:33;;;;;;;8.65;5.65;;;8.10;1.00;;;5.36;100.00;99700.41;4975863;28;20078;-81
2024/01/06 08:38:00;;;;;;;10.20;5.65;;;6.60;1.00;;;4.39;100.00;99565.19;4989645;28;20098;-83
2024/01/06 08:40:27;;;;;;;11.38;7.22;;;6.90;1.00;;;5.24;100.00;99696.22;4973786;28;20050;-82
2024/01/06 08:42:54;;;;;;;8.35;5.75;;;7.50;1.00;;;5.48;100.00;99735.06;4967240;28;20057;-83
2024/01/06 08:45:22;;;;;;;11.07;6.50;;;6.90;1.00;;;5.05;100.00;99687.75;4983612;28;20050;-84
2024/01/06 08:47:49;;;;;;;7.88;5.53;;;7.80;1.00;;;4.80;100.00;99629.84;4982956;28;20051;-84
2024/01/06 08:50:16;;;;;;;6.65;5.25;;;7.30;1.00;;;4.97;100.00;99667.00;4971998;28;20051;-82
2024/01/06 08:52:43;;;;;;;8.02;5.05;;;8.00;1.00;;;4.92;100.00;99645.34;4971896;28;20513;-82
2024/01/06 08:55:11;;;;;;;10.60;5.45;;;6.80;1.00;;;4.52;100.00;99596.28;4955859;28;20039;-81
2024/01/06 08:57:38;;;;;;;8.43;5.63;;;6.10;1.00;;;4.92;100.00;99657.53;4980853;28;20104;-81
2024/01/06 09:00:09;;;;;;;13.13;6.15;;;7.70;1.00;;;4.54;100.00;99584.97;4968855;28;20043;-81
2024/01/06 09:02:36;;;;;;;10.27;6.85;;;6.80;1.00;;;4.87;100.00;99651.50;4957277;28;20051;-81
2024/01/06 09:05:04;;;;;;;12.00;7.07;;;7.30;1.00;;;5.49;100.00;99737.66;4996197;28;20077;-84
2024/01/06 09:07:31;;;;;;;9.60;5.85;;;6.80;1.00;;;4.90;100.00;99628.88;4995384;28;20050;-81
2024/01/06 09:09:59;;;;;;;8.90;5.65;;;6.90;1.00;;;5.07;100.00;99651.25;4958425;28;20060;-81
2024/01/06 09:12:26;;;;;;;10.57;5.50;;;8.30;1.00;;;5.09;100.00;99676.44;4989677;28;20050;-82
2024/01/06 09:14:53;;;;;;;9.23;5.88;;;7.50;1.00;;;5.35;100.00;99714.34;4971374;28;20039;-81
2024/01/06 09:17:22;;;;;;;9.18;5.50;;;6.60;1.00;;;5.07;100.00;99675.59;4955102;28;20510;-83
2024/01/06 09:19:49;;;;;;;11.55;5.85;;;6.90;1.00;;;5.31;100.00;99719.66;4965751;28;20042;-81
2024/01/06 09:22:16;;;;;;;9.70;5.72;;;7.50;1.00;;;4.81;100.00;99634.19;4974009;28;20057;-81
2024/01/06 09:24:43;;;;;;;13.07;5.97;;;6.90;1.00;;;5.17;100.00;99696.31;4958002;28;20050;-81
2024/01/06 09:27:12;;;;;;;7.05;6.28;;;7.60;1.00;;;5.46;100.00;99723.78;4959304;28;20054;-82
2024/01/06 09:29:40;;;;;;;9.75;7.38;;;7.10;1.00;;;5.76;100.00;99779.06;4978791;28;20053;-82
2024/01/06 09:32:07;;;;;;;7.97;6.28;;;7.00;1.00;;;5.16;100.00;99663.31;4950962;28;20608;-83
2024/01/06 09:34:34;;;;;;;12.85;9.10;;;7.20;1.00;;;5.64;100.00;99754.00;4987292;28;20047;-81
2024/01/06 09:37:05;;;;;;;14.15;9.90;;;8.00;1.00;;;5.19;100.00;99673.69;4975063;28;20050;-82
2024/01/06 09:39:32;;;;;;;11.65;8.50;;;7.10;1.00;;;5.32;100.00;99708.31;4990576;28;20054;-82
2024/01/06 09:42:00;;;;;;;10.50;7.18;;;7.60;1.00;;;5.03;100.00;99653.03;4971004;28;20146;-81
2024/01/06 09:44:27;;;;;;;9.15;5.90;;;8.10;1.00;;;4.77;100.00;99627.28;4969242;28;20197;-83
2024/01/06 09:46:59;;;;;;;9.05;5.93;;;8.40;1.00;;;4.80;100.00;99622.91;4976990;28;20043;-81
2024/01/06 09:49:30;;;;;;;10.13;7.70;;;7.70;1.00;;;5.04;100.00;99688.66;4972166;28;20414;-82
2024/01/06 09:52:00;;;;;;;9.75;5.88;;;7.30;1.00;;;5.41;100.00;99725.59;4960280;28;20129;-83
2024/01/06 09:54:33;;;;;;;10.93;5.80;;;7.60;1.30;;;5.16;100.00;99694.59;4973301;28;20054;-83
2024/01/06 09:57:05;;;;;;;10.95;6.03;;;7.40;1.00;;;4.77;100.00;99633.38;4984680;28;20046;-82
2024/01/06 09:59:36;;;;;;;12.00;7.25;;;6.90;1.00;;;5.10;100.00;99685.09;4980051;28;20057;-81
2024/01/06 10:02:04;;;;;;;;;;;7.60;5.50;;;5.24;100.00;99717.09;4962114;28;20060;-83
2024/01/06 10:04:31;;;;;;;10.68;5.88;;;7.00;1.70;;;5.12;100.00;99701.59;4982550;28;20572;-83
2024/01/06 10:06:58;;;;;;;8.07;6.00;;;7.60;3.30;;;5.21;100.00;99713.66;4985269;28;20500;-81
2024/01/06 10:09:28;;;;;;;8.35;6.03;;;8.00;4.10;;;4.98;100.00;99667.88;4971928;28;20042;-83
2024/01/06 10:11:57;;;;;;;8.77;5.63;;;7.10;1.00;;;5.37;100.00;99729.97;4987424;28;20065;-81
2024/01/06 10:14:24;;;;;;;11.20;6.60;;;7.00;1.00;;;5.38;100.00;99729.94;4986224;28;20061;-81
2024/01/06 10:16:54;;;;;;;9.73;6.35;;;7.80;2.90;;;4.98;100.00;99652.22;4966292;28;20078;-82
2024/01/06 10:19:23;;;;;;;10.60;5.20;;;7.30;6.80;;;5.55;100.00;99755.00;4990011;28;20132;-81
2024/01/06 10:21:50;;;;;;;8.70;7.05;;;7.00;3.60;;;4.85;100.00;99638.50;4962845;28;20458;-84
2024/01/06 10:24:18;;;;;;;6.95;6.22;;;7.70;5.00;;;4.85;100.00;99637.63;4986133;28;20046;-82
2024/01/06 10:26:46;;;;;;;8.85;5.93;;;8.10;4.70;;;4.92;100.00;99639.28;4981901;28;20046;-82
2024/01/06 10:29:14;;;;;;;8.70;6.82;;;7.00;1.10;;;5.07;100.00;99662.56;4974680;28;20469;-83
2024/01/06 10:31:41;;;;;;;12.40;6.43;;;7.30;1.40;;;5.27;100.00;99708.38;4948559;28;20105;-82
2024/01/06 10:34:09;;;;;;;7.80;6.18;;;8.40;2.00;;;5.77;100.00;99780.78;4953160;28;20051;-83